Terminal Aerodrome Forecast
Issued by NWS Sterling, VA

Current Version | Previous Version | Graphics & Text | Print | Product List | Glossary On
Versions: 1 2 3 4 5 6 7 8 9 10 11 12 13 14 15 16 17 18 19 20 21 22 23 24
731
FTUS41 KLWX 091139
TAFIAD
TAF
KIAD 091139Z 0912/1018 VRB04KT 2SM -SN OVC009
     FM091400 VRB04KT 1SM -SN OVC006
     FM091700 33006KT 3SM -SHSN OVC025
     FM092100 31007KT P6SM -SHRASN OVC030
     FM100100 29008KT P6SM OVC050=

USA.gov is the U.S. government's official web portal to all federal, state and local government web resources and services.